sensor_id;sensor_type;location;lat;lon;timestamp;P1;durP1;ratioP1;P2;durP2;ratioP2
22284;SDS011;11311;52.192;20.900;2022-09-29T00:02:18;53.08;;;23.25;;
22284;SDS011;11311;52.192;20.900;2022-09-29T00:04:46;53.15;;;24.88;;
22284;SDS011;11311;52.192;20.900;2022-09-29T00:07:15;46.00;;;22.15;;
22284;SDS011;11311;52.192;20.900;2022-09-29T00:09:44;47.83;;;24.65;;
22284;SDS011;11311;52.192;20.900;2022-09-29T00:12:13;33.88;;;17.13;;
22284;SDS011;11311;52.192;20.900;2022-09-29T00:14:42;38.13;;;20.55;;
22284;SDS011;11311;52.192;20.900;2022-09-29T00:17:15;32.15;;;21.45;;
22284;SDS011;11311;52.192;20.900;2022-09-29T00:19:44;33.05;;;18.42;;
22284;SDS011;11311;52.192;20.900;2022-09-29T00:24:43;21.38;;;14.32;;
22284;SDS011;11311;52.192;20.900;2022-09-29T00:27:12;27.20;;;19.80;;
22284;SDS011;11311;52.192;20.900;2022-09-29T00:29:44;31.55;;;19.10;;
22284;SDS011;11311;52.192;20.900;2022-09-29T00:32:15;26.13;;;20.48;;
22284;SDS011;11311;52.192;20.900;2022-09-29T00:34:44;25.08;;;17.73;;
22284;SDS011;11311;52.192;20.900;2022-09-29T00:37:13;26.15;;;18.75;;
22284;SDS011;11311;52.192;20.900;2022-09-29T00:39:42;27.77;;;17.38;;
22284;SDS011;11311;52.192;20.900;2022-09-29T00:42:11;22.45;;;17.42;;
22284;SDS011;11311;52.192;20.900;2022-09-29T00:45:00;25.95;;;19.77;;
22284;SDS011;11311;52.192;20.900;2022-09-29T00:47:35;26.77;;;19.52;;
22284;SDS011;11311;52.192;20.900;2022-09-29T00:50:05;22.35;;;17.95;;
22284;SDS011;11311;52.192;20.900;2022-09-29T00:52:41;21.65;;;15.38;;
22284;SDS011;11311;52.192;20.900;2022-09-29T00:55:13;25.30;;;20.05;;
22284;SDS011;11311;52.192;20.900;2022-09-29T00:57:47;22.50;;;18.23;;
22284;SDS011;11311;52.192;20.900;2022-09-29T01:00:17;24.73;;;20.35;;
22284;SDS011;11311;52.192;20.900;2022-09-29T01:02:49;23.20;;;17.85;;
22284;SDS011;11311;52.192;20.900;2022-09-29T01:05:20;25.58;;;18.98;;
22284;SDS011;11311;52.192;20.900;2022-09-29T01:07:52;25.55;;;18.80;;
22284;SDS011;11311;52.192;20.900;2022-09-29T01:10:21;27.13;;;20.10;;
22284;SDS011;11311;52.192;20.900;2022-09-29T01:12:51;25.10;;;19.25;;
22284;SDS011;11311;52.192;20.900;2022-09-29T01:15:20;28.67;;;21.05;;
22284;SDS011;11311;52.192;20.900;2022-09-29T01:17:50;25.58;;;20.10;;
22284;SDS011;11311;52.192;20.900;2022-09-29T01:20:19;26.25;;;17.23;;
22284;SDS011;11311;52.192;20.900;2022-09-29T01:22:53;24.80;;;19.05;;
22284;SDS011;11311;52.192;20.900;2022-09-29T01:25:47;28.58;;;20.90;;
22284;SDS011;11311;52.192;20.900;2022-09-29T01:28:31;23.88;;;16.38;;
22284;SDS011;11311;52.192;20.900;2022-09-29T01:31:21;28.90;;;21.55;;
22284;SDS011;11311;52.192;20.900;2022-09-29T01:33:57;28.42;;;23.25;;
22284;SDS011;11311;52.192;20.900;2022-09-29T01:36:29;29.52;;;22.08;;
22284;SDS011;11311;52.192;20.900;2022-09-29T01:39:06;27.60;;;20.08;;
22284;SDS011;11311;52.192;20.900;2022-09-29T01:41:41;27.33;;;19.27;;
22284;SDS011;11311;52.192;20.900;2022-09-29T01:44:15;29.52;;;20.90;;
22284;SDS011;11311;52.192;20.900;2022-09-29T01:46:51;25.40;;;20.05;;
22284;SDS011;11311;52.192;20.900;2022-09-29T01:49:22;25.48;;;20.33;;
22284;SDS011;11311;52.192;20.900;2022-09-29T01:51:53;24.27;;;20.23;;
22284;SDS011;11311;52.192;20.900;2022-09-29T01:54:24;26.02;;;19.15;;
22284;SDS011;11311;52.192;20.900;2022-09-29T01:56:57;30.05;;;19.67;;
22284;SDS011;11311;52.192;20.900;2022-09-29T01:59:32;28.75;;;21.33;;
22284;SDS011;11311;52.192;20.900;2022-09-29T02:02:05;28.48;;;18.52;;
22284;SDS011;11311;52.192;20.900;2022-09-29T02:04:37;25.50;;;18.35;;
22284;SDS011;11311;52.192;20.900;2022-09-29T02:07:10;24.27;;;18.30;;
22284;SDS011;11311;52.192;20.900;2022-09-29T02:09:42;23.15;;;18.48;;
22284;SDS011;11311;52.192;20.900;2022-09-29T02:12:16;22.48;;;17.80;;
22284;SDS011;11311;52.192;20.900;2022-09-29T02:14:49;25.52;;;18.35;;
22284;SDS011;11311;52.192;20.900;2022-09-29T02:17:21;23.20;;;17.92;;
22284;SDS011;11311;52.192;20.900;2022-09-29T02:19:52;23.63;;;18.95;;
22284;SDS011;11311;52.192;20.900;2022-09-29T02:22:21;22.45;;;17.70;;
22284;SDS011;11311;52.192;20.900;2022-09-29T02:24:50;17.73;;;15.18;;
22284;SDS011;11311;52.192;20.900;2022-09-29T02:27:21;21.42;;;18.35;;
22284;SDS011;11311;52.192;20.900;2022-09-29T02:29:50;21.33;;;15.63;;
22284;SDS011;11311;52.192;20.900;2022-09-29T02:32:20;19.73;;;15.55;;
22284;SDS011;11311;52.192;20.900;2022-09-29T02:34:49;17.10;;;13.02;;
22284;SDS011;11311;52.192;20.900;2022-09-29T02:40:15;21.15;;;15.52;;
22284;SDS011;11311;52.192;20.900;2022-09-29T02:42:55;28.27;;;18.25;;
22284;SDS011;11311;52.192;20.900;2022-09-29T02:45:35;19.55;;;15.77;;
22284;SDS011;11311;52.192;20.900;2022-09-29T02:48:13;21.90;;;16.73;;
22284;SDS011;11311;52.192;20.900;2022-09-29T02:50:53;17.73;;;14.35;;
22284;SDS011;11311;52.192;20.900;2022-09-29T02:53:35;19.13;;;15.43;;
22284;SDS011;11311;52.192;20.900;2022-09-29T02:56:09;18.92;;;16.02;;
22284;SDS011;11311;52.192;20.900;2022-09-29T02:58:42;21.80;;;16.25;;
22284;SDS011;11311;52.192;20.900;2022-09-29T03:01:14;21.38;;;17.50;;
22284;SDS011;11311;52.192;20.900;2022-09-29T03:03:44;22.40;;;18.83;;
22284;SDS011;11311;52.192;20.900;2022-09-29T03:08:42;20.92;;;16.85;;
22284;SDS011;11311;52.192;20.900;2022-09-29T03:11:11;20.98;;;18.70;;
22284;SDS011;11311;52.192;20.900;2022-09-29T03:13:40;21.40;;;17.33;;
22284;SDS011;11311;52.192;20.900;2022-09-29T03:16:09;20.85;;;17.95;;
22284;SDS011;11311;52.192;20.900;2022-09-29T03:18:38;21.65;;;18.90;;
22284;SDS011;11311;52.192;20.900;2022-09-29T03:21:08;23.42;;;17.95;;
22284;SDS011;11311;52.192;20.900;2022-09-29T03:23:38;22.70;;;18.40;;
22284;SDS011;11311;52.192;20.900;2022-09-29T03:26:07;21.70;;;19.23;;
22284;SDS011;11311;52.192;20.900;2022-09-29T03:28:36;24.25;;;19.80;;
22284;SDS011;11311;52.192;20.900;2022-09-29T03:31:05;21.73;;;19.45;;
22284;SDS011;11311;52.192;20.900;2022-09-29T03:33:35;21.48;;;19.33;;
22284;SDS011;11311;52.192;20.900;2022-09-29T03:36:05;19.63;;;17.63;;
22284;SDS011;11311;52.192;20.900;2022-09-29T03:38:37;21.33;;;18.80;;
22284;SDS011;11311;52.192;20.900;2022-09-29T03:41:06;21.42;;;19.38;;
22284;SDS011;11311;52.192;20.900;2022-09-29T03:43:35;21.58;;;19.50;;
22284;SDS011;11311;52.192;20.900;2022-09-29T03:46:04;21.98;;;19.77;;
22284;SDS011;11311;52.192;20.900;2022-09-29T03:48:33;19.90;;;17.90;;
22284;SDS011;11311;52.192;20.900;2022-09-29T03:51:02;22.85;;;20.67;;
22284;SDS011;11311;52.192;20.900;2022-09-29T03:53:34;23.38;;;21.08;;
22284;SDS011;11311;52.192;20.900;2022-09-29T03:56:03;25.52;;;22.85;;
22284;SDS011;11311;52.192;20.900;2022-09-29T03:58:32;22.73;;;20.33;;
22284;SDS011;11311;52.192;20.900;2022-09-29T04:01:01;23.20;;;20.55;;
22284;SDS011;11311;52.192;20.900;2022-09-29T04:03:30;22.77;;;19.92;;
22284;SDS011;11311;52.192;20.900;2022-09-29T04:05:59;23.80;;;21.23;;
22284;SDS011;11311;52.192;20.900;2022-09-29T04:08:28;23.88;;;21.38;;
22284;SDS011;11311;52.192;20.900;2022-09-29T04:10:58;24.95;;;21.85;;
22284;SDS011;11311;52.192;20.900;2022-09-29T04:13:26;24.13;;;21.52;;
22284;SDS011;11311;52.192;20.900;2022-09-29T04:15:56;22.45;;;20.25;;
22284;SDS011;11311;52.192;20.900;2022-09-29T04:18:26;23.75;;;21.15;;
22284;SDS011;11311;52.192;20.900;2022-09-29T04:20:55;22.30;;;19.90;;
22284;SDS011;11311;52.192;20.900;2022-09-29T04:23:28;20.50;;;18.38;;
22284;SDS011;11311;52.192;20.900;2022-09-29T04:25:59;22.40;;;19.73;;
22284;SDS011;11311;52.192;20.900;2022-09-29T04:28:31;24.98;;;22.35;;
22284;SDS011;11311;52.192;20.900;2022-09-29T04:31:00;23.00;;;19.08;;
22284;SDS011;11311;52.192;20.900;2022-09-29T04:33:30;24.27;;;21.67;;
22284;SDS011;11311;52.192;20.900;2022-09-29T04:35:59;24.08;;;21.52;;
22284;SDS011;11311;52.192;20.900;2022-09-29T04:38:28;22.08;;;19.38;;
22284;SDS011;11311;52.192;20.900;2022-09-29T04:40:58;24.40;;;21.52;;
22284;SDS011;11311;52.192;20.900;2022-09-29T04:43:27;23.92;;;21.08;;
22284;SDS011;11311;52.192;20.900;2022-09-29T04:46:03;24.77;;;22.10;;
22284;SDS011;11311;52.192;20.900;2022-09-29T04:48:32;24.52;;;21.88;;
22284;SDS011;11311;52.192;20.900;2022-09-29T04:51:02;23.67;;;19.55;;
22284;SDS011;11311;52.192;20.900;2022-09-29T04:53:32;26.20;;;21.10;;
22284;SDS011;11311;52.192;20.900;2022-09-29T04:56:05;25.65;;;20.10;;
22284;SDS011;11311;52.192;20.900;2022-09-29T04:58:34;24.15;;;21.55;;
22284;SDS011;11311;52.192;20.900;2022-09-29T05:01:04;29.23;;;22.02;;
22284;SDS011;11311;52.192;20.900;2022-09-29T05:03:34;29.48;;;20.92;;
22284;SDS011;11311;52.192;20.900;2022-09-29T05:06:03;23.85;;;20.70;;
22284;SDS011;11311;52.192;20.900;2022-09-29T05:08:32;22.73;;;20.30;;
22284;SDS011;11311;52.192;20.900;2022-09-29T05:11:02;22.45;;;20.05;;
22284;SDS011;11311;52.192;20.900;2022-09-29T05:13:33;24.67;;;20.92;;
22284;SDS011;11311;52.192;20.900;2022-09-29T05:16:02;24.05;;;21.20;;
22284;SDS011;11311;52.192;20.900;2022-09-29T05:18:32;24.97;;;21.13;;
22284;SDS011;11311;52.192;20.900;2022-09-29T05:21:01;22.75;;;19.67;;
22284;SDS011;11311;52.192;20.900;2022-09-29T05:23:51;27.00;;;21.48;;
22284;SDS011;11311;52.192;20.900;2022-09-29T05:26:21;24.25;;;21.25;;
22284;SDS011;11311;52.192;20.900;2022-09-29T05:28:50;22.67;;;20.27;;
22284;SDS011;11311;52.192;20.900;2022-09-29T05:31:19;23.67;;;20.98;;
22284;SDS011;11311;52.192;20.900;2022-09-29T05:33:48;27.40;;;19.98;;
22284;SDS011;11311;52.192;20.900;2022-09-29T05:36:17;22.17;;;19.90;;
22284;SDS011;11311;52.192;20.900;2022-09-29T05:38:45;25.90;;;20.42;;
22284;SDS011;11311;52.192;20.900;2022-09-29T05:41:14;25.35;;;20.02;;
22284;SDS011;11311;52.192;20.900;2022-09-29T05:43:49;23.75;;;20.17;;
22284;SDS011;11311;52.192;20.900;2022-09-29T05:46:19;21.67;;;18.27;;
22284;SDS011;11311;52.192;20.900;2022-09-29T05:48:49;25.83;;;18.77;;
22284;SDS011;11311;52.192;20.900;2022-09-29T05:51:19;26.48;;;20.35;;
22284;SDS011;11311;52.192;20.900;2022-09-29T05:53:50;23.70;;;19.75;;
22284;SDS011;11311;52.192;20.900;2022-09-29T05:56:19;25.40;;;19.45;;
22284;SDS011;11311;52.192;20.900;2022-09-29T05:58:51;26.13;;;19.42;;
22284;SDS011;11311;52.192;20.900;2022-09-29T06:01:20;21.95;;;19.75;;
22284;SDS011;11311;52.192;20.900;2022-09-29T06:06:22;24.90;;;18.30;;
22284;SDS011;11311;52.192;20.900;2022-09-29T06:08:52;22.85;;;18.65;;
22284;SDS011;11311;52.192;20.900;2022-09-29T06:11:22;24.23;;;19.58;;
22284;SDS011;11311;52.192;20.900;2022-09-29T06:13:52;22.10;;;18.23;;
22284;SDS011;11311;52.192;20.900;2022-09-29T06:16:22;24.15;;;19.48;;
22284;SDS011;11311;52.192;20.900;2022-09-29T06:18:52;21.10;;;18.90;;
22284;SDS011;11311;52.192;20.900;2022-09-29T06:21:22;22.75;;;20.23;;
22284;SDS011;11311;52.192;20.900;2022-09-29T06:23:52;21.55;;;19.33;;
22284;SDS011;11311;52.192;20.900;2022-09-29T06:26:22;23.48;;;20.40;;
22284;SDS011;11311;52.192;20.900;2022-09-29T06:28:54;22.92;;;20.52;;
22284;SDS011;11311;52.192;20.900;2022-09-29T06:31:24;22.27;;;20.00;;
22284;SDS011;11311;52.192;20.900;2022-09-29T06:33:55;20.85;;;18.75;;
22284;SDS011;11311;52.192;20.900;2022-09-29T06:36:26;22.80;;;18.90;;
22284;SDS011;11311;52.192;20.900;2022-09-29T06:39:15;19.90;;;17.80;;
22284;SDS011;11311;52.192;20.900;2022-09-29T06:41:44;22.53;;;19.00;;
22284;SDS011;11311;52.192;20.900;2022-09-29T06:44:19;20.73;;;17.25;;
22284;SDS011;11311;52.192;20.900;2022-09-29T06:46:50;22.30;;;19.85;;
22284;SDS011;11311;52.192;20.900;2022-09-29T06:49:19;18.85;;;16.95;;
22284;SDS011;11311;52.192;20.900;2022-09-29T06:51:48;20.00;;;17.88;;
22284;SDS011;11311;52.192;20.900;2022-09-29T06:54:18;18.35;;;15.65;;
22284;SDS011;11311;52.192;20.900;2022-09-29T06:56:48;18.95;;;16.40;;
22284;SDS011;11311;52.192;20.900;2022-09-29T06:59:19;16.87;;;15.13;;
22284;SDS011;11311;52.192;20.900;2022-09-29T07:01:48;18.17;;;16.27;;
22284;SDS011;11311;52.192;20.900;2022-09-29T07:04:18;16.70;;;14.03;;
22284;SDS011;11311;52.192;20.900;2022-09-29T07:06:48;16.75;;;15.02;;
22284;SDS011;11311;52.192;20.900;2022-09-29T07:09:17;15.60;;;14.13;;
22284;SDS011;11311;52.192;20.900;2022-09-29T07:11:47;14.93;;;13.33;;
22284;SDS011;11311;52.192;20.900;2022-09-29T07:14:18;16.40;;;14.73;;
22284;SDS011;11311;52.192;20.900;2022-09-29T07:16:49;17.38;;;15.57;;
22284;SDS011;11311;52.192;20.900;2022-09-29T07:19:18;18.08;;;14.88;;
22284;SDS011;11311;52.192;20.900;2022-09-29T07:21:48;19.00;;;15.85;;
22284;SDS011;11311;52.192;20.900;2022-09-29T07:24:18;17.45;;;15.73;;
22284;SDS011;11311;52.192;20.900;2022-09-29T07:26:47;17.95;;;16.25;;
22284;SDS011;11311;52.192;20.900;2022-09-29T07:29:16;15.95;;;14.25;;
22284;SDS011;11311;52.192;20.900;2022-09-29T07:31:46;16.30;;;14.77;;
22284;SDS011;11311;52.192;20.900;2022-09-29T07:34:19;16.65;;;13.52;;
22284;SDS011;11311;52.192;20.900;2022-09-29T07:36:48;14.85;;;13.45;;
22284;SDS011;11311;52.192;20.900;2022-09-29T07:39:18;18.77;;;13.73;;
22284;SDS011;11311;52.192;20.900;2022-09-29T07:41:48;15.13;;;13.57;;
22284;SDS011;11311;52.192;20.900;2022-09-29T07:44:18;15.68;;;13.95;;
22284;SDS011;11311;52.192;20.900;2022-09-29T07:46:49;15.82;;;14.30;;
22284;SDS011;11311;52.192;20.900;2022-09-29T07:51:46;14.82;;;13.38;;
22284;SDS011;11311;52.192;20.900;2022-09-29T07:54:15;15.13;;;13.63;;
22284;SDS011;11311;52.192;20.900;2022-09-29T07:56:44;16.27;;;13.13;;
22284;SDS011;11311;52.192;20.900;2022-09-29T07:59:13;13.50;;;12.20;;
22284;SDS011;11311;52.192;20.900;2022-09-29T08:01:42;12.55;;;11.18;;
22284;SDS011;11311;52.192;20.900;2022-09-29T08:04:12;15.85;;;12.55;;
22284;SDS011;11311;52.192;20.900;2022-09-29T08:06:41;14.85;;;13.45;;
22284;SDS011;11311;52.192;20.900;2022-09-29T08:09:10;13.15;;;11.90;;
22284;SDS011;11311;52.192;20.900;2022-09-29T08:11:40;13.32;;;12.02;;
22284;SDS011;11311;52.192;20.900;2022-09-29T08:16:38;16.02;;;12.25;;
22284;SDS011;11311;52.192;20.900;2022-09-29T08:19:07;14.07;;;12.77;;
22284;SDS011;11311;52.192;20.900;2022-09-29T08:21:38;14.82;;;11.80;;
22284;SDS011;11311;52.192;20.900;2022-09-29T08:26:36;14.65;;;13.25;;
22284;SDS011;11311;52.192;20.900;2022-09-29T08:29:11;15.07;;;13.60;;
22284;SDS011;11311;52.192;20.900;2022-09-29T08:31:43;15.00;;;12.55;;
22284;SDS011;11311;52.192;20.900;2022-09-29T08:34:13;12.83;;;11.53;;
22284;SDS011;11311;52.192;20.900;2022-09-29T08:36:44;12.55;;;11.38;;
22284;SDS011;11311;52.192;20.900;2022-09-29T08:39:13;13.00;;;11.68;;
22284;SDS011;11311;52.192;20.900;2022-09-29T08:41:52;12.43;;;11.20;;
22284;SDS011;11311;52.192;20.900;2022-09-29T08:44:25;15.17;;;10.97;;
22284;SDS011;11311;52.192;20.900;2022-09-29T08:47:06;10.82;;;9.93;;
22284;SDS011;11311;52.192;20.900;2022-09-29T08:49:42;11.25;;;9.70;;
22284;SDS011;11311;52.192;20.900;2022-09-29T08:52:15;10.20;;;9.30;;
22284;SDS011;11311;52.192;20.900;2022-09-29T08:54:48;10.30;;;9.15;;
22284;SDS011;11311;52.192;20.900;2022-09-29T08:57:20;10.77;;;9.85;;
22284;SDS011;11311;52.192;20.900;2022-09-29T08:59:51;10.15;;;9.25;;
22284;SDS011;11311;52.192;20.900;2022-09-29T09:02:26;10.68;;;9.57;;
22284;SDS011;11311;52.192;20.900;2022-09-29T09:05:11;11.88;;;10.43;;
22284;SDS011;11311;52.192;20.900;2022-09-29T09:07:47;10.52;;;8.95;;
22284;SDS011;11311;52.192;20.900;2022-09-29T09:10:31;8.95;;;8.15;;
22284;SDS011;11311;52.192;20.900;2022-09-29T09:13:12;8.93;;;8.00;;
22284;SDS011;11311;52.192;20.900;2022-09-29T09:15:51;11.88;;;8.90;;
22284;SDS011;11311;52.192;20.900;2022-09-29T09:18:37;9.85;;;8.95;;
22284;SDS011;11311;52.192;20.900;2022-09-29T09:21:23;12.90;;;9.30;;
22284;SDS011;11311;52.192;20.900;2022-09-29T09:23:57;9.50;;;8.60;;
22284;SDS011;11311;52.192;20.900;2022-09-29T09:26:34;10.38;;;9.38;;
22284;SDS011;11311;52.192;20.900;2022-09-29T09:29:08;10.52;;;9.23;;
22284;SDS011;11311;52.192;20.900;2022-09-29T09:31:42;9.30;;;8.50;;
22284;SDS011;11311;52.192;20.900;2022-09-29T09:34:14;10.15;;;9.35;;
22284;SDS011;11311;52.192;20.900;2022-09-29T09:36:48;11.02;;;9.93;;
22284;SDS011;11311;52.192;20.900;2022-09-29T09:39:35;10.30;;;9.38;;
22284;SDS011;11311;52.192;20.900;2022-09-29T09:42:07;11.65;;;10.65;;
22284;SDS011;11311;52.192;20.900;2022-09-29T09:44:42;10.93;;;9.93;;
22284;SDS011;11311;52.192;20.900;2022-09-29T09:47:19;11.55;;;10.43;;
22284;SDS011;11311;52.192;20.900;2022-09-29T09:49:52;11.00;;;9.85;;
22284;SDS011;11311;52.192;20.900;2022-09-29T09:52:25;11.20;;;10.20;;
22284;SDS011;11311;52.192;20.900;2022-09-29T09:54:59;13.07;;;11.88;;
22284;SDS011;11311;52.192;20.900;2022-09-29T09:57:38;11.25;;;10.15;;
22284;SDS011;11311;52.192;20.900;2022-09-29T10:00:27;9.60;;;8.80;;
22284;SDS011;11311;52.192;20.900;2022-09-29T10:03:00;10.63;;;9.73;;
22284;SDS011;11311;52.192;20.900;2022-09-29T10:05:31;10.50;;;9.60;;
22284;SDS011;11311;52.192;20.900;2022-09-29T10:08:05;10.65;;;9.75;;
22284;SDS011;11311;52.192;20.900;2022-09-29T10:10:35;14.80;;;10.27;;
22284;SDS011;11311;52.192;20.900;2022-09-29T10:13:24;10.35;;;9.40;;
22284;SDS011;11311;52.192;20.900;2022-09-29T10:15:54;11.88;;;10.77;;
22284;SDS011;11311;52.192;20.900;2022-09-29T10:18:25;10.75;;;9.75;;
22284;SDS011;11311;52.192;20.900;2022-09-29T10:20:57;11.82;;;10.73;;
22284;SDS011;11311;52.192;20.900;2022-09-29T10:23:27;12.07;;;11.07;;
22284;SDS011;11311;52.192;20.900;2022-09-29T10:25:59;12.93;;;11.75;;
22284;SDS011;11311;52.192;20.900;2022-09-29T10:28:35;14.07;;;12.73;;
22284;SDS011;11311;52.192;20.900;2022-09-29T10:31:20;12.93;;;11.77;;
22284;SDS011;11311;52.192;20.900;2022-09-29T10:33:53;14.05;;;12.85;;
22284;SDS011;11311;52.192;20.900;2022-09-29T10:36:24;14.52;;;13.02;;
22284;SDS011;11311;52.192;20.900;2022-09-29T10:38:54;13.13;;;11.82;;
22284;SDS011;11311;52.192;20.900;2022-09-29T10:41:39;13.10;;;11.90;;
22284;SDS011;11311;52.192;20.900;2022-09-29T10:46:50;15.23;;;12.05;;
22284;SDS011;11311;52.192;20.900;2022-09-29T10:49:21;13.73;;;12.43;;
22284;SDS011;11311;52.192;20.900;2022-09-29T10:54:24;13.45;;;12.20;;
22284;SDS011;11311;52.192;20.900;2022-09-29T10:56:57;14.27;;;12.98;;
22284;SDS011;11311;52.192;20.900;2022-09-29T10:59:28;13.85;;;12.63;;
22284;SDS011;11311;52.192;20.900;2022-09-29T11:01:57;16.88;;;13.25;;
22284;SDS011;11311;52.192;20.900;2022-09-29T11:04:27;15.05;;;13.15;;
22284;SDS011;11311;52.192;20.900;2022-09-29T11:07:03;17.02;;;15.32;;
22284;SDS011;11311;52.192;20.900;2022-09-29T11:09:37;15.07;;;13.60;;
22284;SDS011;11311;52.192;20.900;2022-09-29T11:14:59;14.38;;;13.15;;
22284;SDS011;11311;52.192;20.900;2022-09-29T11:17:30;14.20;;;12.80;;
22284;SDS011;11311;52.192;20.900;2022-09-29T11:20:09;14.20;;;12.90;;
22284;SDS011;11311;52.192;20.900;2022-09-29T11:23:00;13.88;;;12.65;;
22284;SDS011;11311;52.192;20.900;2022-09-29T11:26:06;12.45;;;11.32;;
22284;SDS011;11311;52.192;20.900;2022-09-29T11:28:45;12.93;;;11.73;;
22284;SDS011;11311;52.192;20.900;2022-09-29T11:31:25;14.25;;;12.95;;
22284;SDS011;11311;52.192;20.900;2022-09-29T11:34:05;13.85;;;12.45;;
22284;SDS011;11311;52.192;20.900;2022-09-29T11:36:43;13.38;;;12.18;;
22284;SDS011;11311;52.192;20.900;2022-09-29T11:39:24;12.77;;;11.57;;
22284;SDS011;11311;52.192;20.900;2022-09-29T11:42:04;13.00;;;11.85;;
22284;SDS011;11311;52.192;20.900;2022-09-29T11:44:54;13.88;;;11.02;;
22284;SDS011;11311;52.192;20.900;2022-09-29T11:50:35;14.40;;;12.70;;
22284;SDS011;11311;52.192;20.900;2022-09-29T11:53:18;14.13;;;12.85;;
22284;SDS011;11311;52.192;20.900;2022-09-29T11:55:57;12.02;;;10.93;;
22284;SDS011;11311;52.192;20.900;2022-09-29T11:58:38;11.68;;;10.57;;
22284;SDS011;11311;52.192;20.900;2022-09-29T12:01:18;11.73;;;10.60;;
22284;SDS011;11311;52.192;20.900;2022-09-29T12:03:59;12.88;;;10.95;;
22284;SDS011;11311;52.192;20.900;2022-09-29T12:06:49;12.48;;;11.48;;
22284;SDS011;11311;52.192;20.900;2022-09-29T12:09:25;12.60;;;11.50;;
22284;SDS011;11311;52.192;20.900;2022-09-29T12:12:06;11.35;;;9.90;;
22284;SDS011;11311;52.192;20.900;2022-09-29T12:14:56;11.93;;;9.90;;
22284;SDS011;11311;52.192;20.900;2022-09-29T12:17:33;11.25;;;9.90;;
22284;SDS011;11311;52.192;20.900;2022-09-29T12:20:04;10.77;;;9.85;;
22284;SDS011;11311;52.192;20.900;2022-09-29T12:22:37;11.13;;;10.20;;
22284;SDS011;11311;52.192;20.900;2022-09-29T12:25:11;9.70;;;8.88;;
22284;SDS011;11311;52.192;20.900;2022-09-29T12:27:42;10.90;;;9.73;;
22284;SDS011;11311;52.192;20.900;2022-09-29T12:30:13;14.10;;;10.13;;
22284;SDS011;11311;52.192;20.900;2022-09-29T12:32:48;10.90;;;9.90;;
22284;SDS011;11311;52.192;20.900;2022-09-29T12:35:21;11.27;;;10.02;;
22284;SDS011;11311;52.192;20.900;2022-09-29T12:37:53;12.13;;;10.55;;
22284;SDS011;11311;52.192;20.900;2022-09-29T12:40:26;12.88;;;11.77;;
22284;SDS011;11311;52.192;20.900;2022-09-29T12:43:03;12.32;;;11.10;;
22284;SDS011;11311;52.192;20.900;2022-09-29T12:45:40;11.57;;;10.40;;
22284;SDS011;11311;52.192;20.900;2022-09-29T12:48:18;12.48;;;11.38;;
22284;SDS011;11311;52.192;20.900;2022-09-29T12:50:56;12.25;;;11.05;;
22284;SDS011;11311;52.192;20.900;2022-09-29T12:53:28;11.35;;;10.35;;
22284;SDS011;11311;52.192;20.900;2022-09-29T12:56:01;11.70;;;10.52;;
22284;SDS011;11311;52.192;20.900;2022-09-29T13:01:03;10.73;;;9.80;;
22284;SDS011;11311;52.192;20.900;2022-09-29T13:06:49;11.55;;;10.55;;
22284;SDS011;11311;52.192;20.900;2022-09-29T13:09:35;12.52;;;10.48;;
22284;SDS011;11311;52.192;20.900;2022-09-29T13:12:26;11.27;;;10.25;;
22284;SDS011;11311;52.192;20.900;2022-09-29T13:15:34;10.90;;;9.63;;
22284;SDS011;11311;52.192;20.900;2022-09-29T13:18:27;11.32;;;10.43;;
22284;SDS011;11311;52.192;20.900;2022-09-29T13:21:34;10.40;;;9.40;;
22284;SDS011;11311;52.192;20.900;2022-09-29T13:24:22;10.65;;;9.57;;
22284;SDS011;11311;52.192;20.900;2022-09-29T13:27:07;11.43;;;10.15;;
22284;SDS011;11311;52.192;20.900;2022-09-29T13:29:43;10.95;;;10.05;;
22284;SDS011;11311;52.192;20.900;2022-09-29T13:32:14;13.73;;;12.32;;
22284;SDS011;11311;52.192;20.900;2022-09-29T13:34:46;9.63;;;8.82;;
22284;SDS011;11311;52.192;20.900;2022-09-29T13:37:17;10.13;;;8.73;;
22284;SDS011;11311;52.192;20.900;2022-09-29T13:39:52;10.48;;;9.57;;
22284;SDS011;11311;52.192;20.900;2022-09-29T13:42:40;8.77;;;7.93;;
22284;SDS011;11311;52.192;20.900;2022-09-29T13:45:14;8.32;;;7.55;;
22284;SDS011;11311;52.192;20.900;2022-09-29T13:51:25;8.07;;;7.22;;
22284;SDS011;11311;52.192;20.900;2022-09-29T13:56:43;6.35;;;5.95;;
22284;SDS011;11311;52.192;20.900;2022-09-29T13:59:16;8.20;;;6.63;;
22284;SDS011;11311;52.192;20.900;2022-09-29T14:01:47;6.40;;;5.90;;
22284;SDS011;11311;52.192;20.900;2022-09-29T14:04:32;6.38;;;5.85;;
22284;SDS011;11311;52.192;20.900;2022-09-29T14:07:05;6.90;;;6.20;;
22284;SDS011;11311;52.192;20.900;2022-09-29T14:09:35;7.00;;;6.30;;
22284;SDS011;11311;52.192;20.900;2022-09-29T14:12:08;7.55;;;6.78;;
22284;SDS011;11311;52.192;20.900;2022-09-29T14:14:43;6.18;;;5.68;;
22284;SDS011;11311;52.192;20.900;2022-09-29T14:17:18;6.95;;;5.60;;
22284;SDS011;11311;52.192;20.900;2022-09-29T14:19:50;7.00;;;6.38;;
22284;SDS011;11311;52.192;20.900;2022-09-29T14:25:32;6.90;;;6.30;;
22284;SDS011;11311;52.192;20.900;2022-09-29T14:31:20;7.70;;;6.75;;
22284;SDS011;11311;52.192;20.900;2022-09-29T14:33:50;7.07;;;6.47;;
22284;SDS011;11311;52.192;20.900;2022-09-29T14:36:20;7.55;;;6.88;;
22284;SDS011;11311;52.192;20.900;2022-09-29T14:38:53;7.38;;;6.25;;
22284;SDS011;11311;52.192;20.900;2022-09-29T14:41:44;9.35;;;5.85;;
22284;SDS011;11311;52.192;20.900;2022-09-29T14:44:17;7.20;;;5.97;;
22284;SDS011;11311;52.192;20.900;2022-09-29T14:46:56;6.25;;;5.75;;
22284;SDS011;11311;52.192;20.900;2022-09-29T14:49:51;7.10;;;5.72;;
22284;SDS011;11311;52.192;20.900;2022-09-29T14:52:58;6.40;;;5.80;;
22284;SDS011;11311;52.192;20.900;2022-09-29T14:55:33;7.30;;;6.70;;
22284;SDS011;11311;52.192;20.900;2022-09-29T14:58:16;7.90;;;7.15;;
22284;SDS011;11311;52.192;20.900;2022-09-29T15:00:56;7.85;;;7.15;;
22284;SDS011;11311;52.192;20.900;2022-09-29T15:03:31;7.47;;;6.88;;
22284;SDS011;11311;52.192;20.900;2022-09-29T15:06:05;7.68;;;6.93;;
22284;SDS011;11311;52.192;20.900;2022-09-29T15:08:37;8.02;;;7.35;;
22284;SDS011;11311;52.192;20.900;2022-09-29T15:11:25;8.88;;;8.10;;
22284;SDS011;11311;52.192;20.900;2022-09-29T15:13:57;8.93;;;8.23;;
22284;SDS011;11311;52.192;20.900;2022-09-29T15:16:30;8.80;;;8.02;;
22284;SDS011;11311;52.192;20.900;2022-09-29T15:19:10;9.88;;;9.00;;
22284;SDS011;11311;52.192;20.900;2022-09-29T15:21:48;12.02;;;9.43;;
22284;SDS011;11311;52.192;20.900;2022-09-29T15:24:27;12.07;;;11.05;;
22284;SDS011;11311;52.192;20.900;2022-09-29T15:27:03;10.68;;;9.55;;
22284;SDS011;11311;52.192;20.900;2022-09-29T15:29:35;10.20;;;9.40;;
22284;SDS011;11311;52.192;20.900;2022-09-29T15:32:10;12.20;;;11.10;;
22284;SDS011;11311;52.192;20.900;2022-09-29T15:34:47;9.38;;;8.57;;
22284;SDS011;11311;52.192;20.900;2022-09-29T15:37:21;10.75;;;9.85;;
22284;SDS011;11311;52.192;20.900;2022-09-29T15:39:51;12.38;;;11.23;;